sensor_id;sensor_type;location;lat;lon;timestamp;pressure;altitude;pressure_sealevel;temperature;humidity
30343;BME280;17145;49.902;8.680;'2023-08-07 01:58:30';99700;;;13;61
30343;BME280;17145;49.902;8.680;'2023-08-07 02:00:57';99700;;;13;61
30343;BME280;17145;49.902;8.680;'2023-08-07 02:03:25';99700;;;12;61
30343;BME280;17145;49.902;8.680;'2023-08-07 02:05:52';99710;;;12;61
30343;BME280;17145;49.902;8.680;'2023-08-07 02:08:19';99710;;;13;61
30343;BME280;17145;49.902;8.680;'2023-08-07 02:10:47';99720;;;12;60
30343;BME280;17145;49.902;8.680;'2023-08-07 02:13:14';99720;;;12;60
30343;BME280;17145;49.902;8.680;'2023-08-07 02:15:42';99710;;;12;60
30343;BME280;17145;49.902;8.680;'2023-08-07 02:18:10';99710;;;13;60
30343;BME280;17145;49.902;8.680;'2023-08-07 02:20:37';99710;;;13;60
30343;BME280;17145;49.902;8.680;'2023-08-07 02:23:05';99720;;;13;60
30343;BME280;17145;49.902;8.680;'2023-08-07 02:25:32';99710;;;12;61
30343;BME280;17145;49.902;8.680;'2023-08-07 02:27:59';99710;;;13;61
30343;BME280;17145;49.902;8.680;'2023-08-07 02:30:27';99720;;;12;61
30343;BME280;17145;49.902;8.680;'2023-08-07 02:32:54';99720;;;12;61
30343;BME280;17145;49.902;8.680;'2023-08-07 02:35:21';99710;;;12;60
30343;BME280;17145;49.902;8.680;'2023-08-07 02:37:49';99710;;;13;61
30343;BME280;17145;49.902;8.680;'2023-08-07 02:40:17';99710;;;13;61
30343;BME280;17145;49.902;8.680;'2023-08-07 02:42:45';99710;;;13;60
30343;BME280;17145;49.902;8.680;'2023-08-07 02:45:12';99710;;;12;60
30343;BME280;17145;49.902;8.680;'2023-08-07 02:47:39';99710;;;12;61
30343;BME280;17145;49.902;8.680;'2023-08-07 02:50:08';99710;;;13;60
30343;BME280;17145;49.902;8.680;'2023-08-07 02:52:35';99710;;;13;60
30343;BME280;17145;49.902;8.680;'2023-08-07 02:55:04';99720;;;12;60
30343;BME280;17145;49.902;8.680;'2023-08-07 02:57:32';99720;;;12;61
30343;BME280;17145;49.902;8.680;'2023-08-07 02:59:59';99720;;;12;61
30343;BME280;17145;49.902;8.680;'2023-08-07 03:02:27';99720;;;12;62
30343;BME280;17145;49.902;8.680;'2023-08-07 03:04:55';99720;;;12;62
30343;BME280;17145;49.902;8.680;'2023-08-07 03:07:22';99710;;;12;62
30343;BME280;17145;49.902;8.680;'2023-08-07 03:09:50';99720;;;12;61
30343;BME280;17145;49.902;8.680;'2023-08-07 03:12:23';99720;;;12;61
30343;BME280;17145;49.902;8.680;'2023-08-07 03:14:55';99720;;;12;61
30343;BME280;17145;49.902;8.680;'2023-08-07 03:17:23';99720;;;12;61
30343;BME280;17145;49.902;8.680;'2023-08-07 03:19:51';99720;;;12;61
30343;BME280;17145;49.902;8.680;'2023-08-07 03:22:19';99710;;;13;61
30343;BME280;17145;49.902;8.680;'2023-08-07 03:24:48';99720;;;12;61
30343;BME280;17145;49.902;8.680;'2023-08-07 03:27:29';99720;;;12;60
30343;BME280;17145;49.902;8.680;'2023-08-07 03:30:02';99720;;;12;60
30343;BME280;17145;49.902;8.680;'2023-08-07 03:32:35';99720;;;12;60
30343;BME280;17145;49.902;8.680;'2023-08-07 03:35:06';99720;;;12;60
30343;BME280;17145;49.902;8.680;'2023-08-07 03:37:38';99720;;;13;60
30343;BME280;17145;49.902;8.680;'2023-08-07 03:40:07';99720;;;12;59
30343;BME280;17145;49.902;8.680;'2023-08-07 03:42:35';99720;;;12;60
30343;BME280;17145;49.902;8.680;'2023-08-07 03:45:04';99720;;;12;59
30343;BME280;17145;49.902;8.680;'2023-08-07 03:47:32';99720;;;12;60
30343;BME280;17145;49.902;8.680;'2023-08-07 03:49:59';99720;;;12;60
30343;BME280;17145;49.902;8.680;'2023-08-07 03:52:26';99730;;;12;60
30343;BME280;17145;49.902;8.680;'2023-08-07 03:54:54';99730;;;12;60
30343;BME280;17145;49.902;8.680;'2023-08-07 03:57:21';99730;;;12;60
30343;BME280;17145;49.902;8.680;'2023-08-07 03:59:49';99730;;;12;60
30343;BME280;17145;49.902;8.680;'2023-08-07 04:02:16';99730;;;12;59
30343;BME280;17145;49.902;8.680;'2023-08-07 04:04:43';99730;;;12;59
30343;BME280;17145;49.902;8.680;'2023-08-07 04:07:11';99740;;;12;59
30343;BME280;17145;49.902;8.680;'2023-08-07 04:09:38';99730;;;12;59
30343;BME280;17145;49.902;8.680;'2023-08-07 04:12:06';99740;;;12;59
30343;BME280;17145;49.902;8.680;'2023-08-07 04:14:34';99740;;;12;59
30343;BME280;17145;49.902;8.680;'2023-08-07 04:17:01';99740;;;13;58
30343;BME280;17145;49.902;8.680;'2023-08-07 04:19:29';99740;;;12;58
30343;BME280;17145;49.902;8.680;'2023-08-07 04:21:56';99750;;;12;59
30343;BME280;17145;49.902;8.680;'2023-08-07 04:24:23';99750;;;12;58
30343;BME280;17145;49.902;8.680;'2023-08-07 04:26:51';99750;;;12;58
30343;BME280;17145;49.902;8.680;'2023-08-07 04:29:18';99750;;;12;58
30343;BME280;17145;49.902;8.680;'2023-08-07 04:31:46';99750;;;12;58
30343;BME280;17145;49.902;8.680;'2023-08-07 04:34:13';99750;;;12;59
30343;BME280;17145;49.902;8.680;'2023-08-07 04:36:41';99760;;;12;58
30343;BME280;17145;49.902;8.680;'2023-08-07 04:39:08';99750;;;12;58
30343;BME280;17145;49.902;8.680;'2023-08-07 04:41:35';99750;;;12;58
30343;BME280;17145;49.902;8.680;'2023-08-07 04:44:03';99750;;;12;58
30343;BME280;17145;49.902;8.680;'2023-08-07 04:46:30';99750;;;12;58
30343;BME280;17145;49.902;8.680;'2023-08-07 04:48:58';99750;;;12;58
30343;BME280;17145;49.902;8.680;'2023-08-07 04:51:25';99750;;;12;58
30343;BME280;17145;49.902;8.680;'2023-08-07 04:53:52';99750;;;12;57
30343;BME280;17145;49.902;8.680;'2023-08-07 04:56:20';99750;;;12;57
30343;BME280;17145;49.902;8.680;'2023-08-07 04:58:47';99750;;;12;58
30343;BME280;17145;49.902;8.680;'2023-08-07 05:01:15';99750;;;12;58
30343;BME280;17145;49.902;8.680;'2023-08-07 05:03:42';99750;;;12;58
30343;BME280;17145;49.902;8.680;'2023-08-07 05:06:10';99750;;;12;58
30343;BME280;17145;49.902;8.680;'2023-08-07 05:08:37';99750;;;12;57
30343;BME280;17145;49.902;8.680;'2023-08-07 05:11:04';99750;;;12;58
30343;BME280;17145;49.902;8.680;'2023-08-07 05:13:32';99750;;;12;58
30343;BME280;17145;49.902;8.680;'2023-08-07 05:16:00';99750;;;12;57
30343;BME280;17145;49.902;8.680;'2023-08-07 05:18:29';99750;;;12;57
30343;BME280;17145;49.902;8.680;'2023-08-07 05:20:57';99760;;;12;57
30343;BME280;17145;49.902;8.680;'2023-08-07 05:23:25';99750;;;12;57
30343;BME280;17145;49.902;8.680;'2023-08-07 05:26:03';99760;;;12;58
30343;BME280;17145;49.902;8.680;'2023-08-07 05:28:30';99760;;;12;57
30343;BME280;17145;49.902;8.680;'2023-08-07 05:30:58';99760;;;12;58
30343;BME280;17145;49.902;8.680;'2023-08-07 05:33:25';99760;;;12;57
30343;BME280;17145;49.902;8.680;'2023-08-07 05:35:53';99760;;;12;57
30343;BME280;17145;49.902;8.680;'2023-08-07 05:38:21';99760;;;12;57
30343;BME280;17145;49.902;8.680;'2023-08-07 05:40:48';99760;;;12;57
30343;BME280;17145;49.902;8.680;'2023-08-07 05:43:15';99770;;;12;57
30343;BME280;17145;49.902;8.680;'2023-08-07 05:45:43';99760;;;12;57
30343;BME280;17145;49.902;8.680;'2023-08-07 05:48:10';99770;;;12;57
30343;BME280;17145;49.902;8.680;'2023-08-07 05:50:38';99760;;;12;57
30343;BME280;17145;49.902;8.680;'2023-08-07 05:53:05';99770;;;12;57
30343;BME280;17145;49.902;8.680;'2023-08-07 05:55:33';99760;;;12;57
30343;BME280;17145;49.902;8.680;'2023-08-07 05:58:00';99770;;;12;56
30343;BME280;17145;49.902;8.680;'2023-08-07 06:00:28';99770;;;12;56
30343;BME280;17145;49.902;8.680;'2023-08-07 06:02:56';99760;;;12;56
30343;BME280;17145;49.902;8.680;'2023-08-07 06:05:23';99770;;;12;57
30343;BME280;17145;49.902;8.680;'2023-08-07 06:07:51';99770;;;12;56
30343;BME280;17145;49.902;8.680;'2023-08-07 06:10:18';99770;;;13;56
30343;BME280;17145;49.902;8.680;'2023-08-07 06:12:45';99770;;;12;56
30343;BME280;17145;49.902;8.680;'2023-08-07 06:15:13';99770;;;13;56
30343;BME280;17145;49.902;8.680;'2023-08-07 06:17:40';99770;;;12;55
30343;BME280;17145;49.902;8.680;'2023-08-07 06:20:09';99780;;;13;55
30343;BME280;17145;49.902;8.680;'2023-08-07 06:22:36';99780;;;12;55
30343;BME280;17145;49.902;8.680;'2023-08-07 06:25:04';99780;;;13;55
30343;BME280;17145;49.902;8.680;'2023-08-07 06:27:31';99780;;;12;55
30343;BME280;17145;49.902;8.680;'2023-08-07 06:29:58';99790;;;13;55
30343;BME280;17145;49.902;8.680;'2023-08-07 06:32:26';99790;;;12;55
30343;BME280;17145;49.902;8.680;'2023-08-07 06:34:53';99790;;;12;55
30343;BME280;17145;49.902;8.680;'2023-08-07 06:37:21';99800;;;12;55
30343;BME280;17145;49.902;8.680;'2023-08-07 06:39:48';99790;;;12;55
30343;BME280;17145;49.902;8.680;'2023-08-07 06:42:15';99790;;;13;55
30343;BME280;17145;49.902;8.680;'2023-08-07 06:44:42';99800;;;12;55
30343;BME280;17145;49.902;8.680;'2023-08-07 06:47:10';99790;;;13;55
30343;BME280;17145;49.902;8.680;'2023-08-07 06:49:37';99800;;;12;55
30343;BME280;17145;49.902;8.680;'2023-08-07 06:52:05';99800;;;12;55
30343;BME280;17145;49.902;8.680;'2023-08-07 06:54:33';99810;;;13;55
30343;BME280;17145;49.902;8.680;'2023-08-07 06:57:00';99800;;;12;55
30343;BME280;17145;49.902;8.680;'2023-08-07 06:59:27';99810;;;12;55
30343;BME280;17145;49.902;8.680;'2023-08-07 07:01:55';99810;;;13;55
30343;BME280;17145;49.902;8.680;'2023-08-07 07:04:22';99800;;;13;55
30343;BME280;17145;49.902;8.680;'2023-08-07 07:06:49';99800;;;12;55
30343;BME280;17145;49.902;8.680;'2023-08-07 07:09:17';99810;;;12;55
30343;BME280;17145;49.902;8.680;'2023-08-07 07:11:44';99810;;;13;55
30343;BME280;17145;49.902;8.680;'2023-08-07 07:14:12';99810;;;12;55
30343;BME280;17145;49.902;8.680;'2023-08-07 07:16:39';99820;;;12;55
30343;BME280;17145;49.902;8.680;'2023-08-07 07:19:06';99820;;;12;54
30343;BME280;17145;49.902;8.680;'2023-08-07 07:21:34';99820;;;12;54
30343;BME280;17145;49.902;8.680;'2023-08-07 07:24:02';99820;;;13;54
30343;BME280;17145;49.902;8.680;'2023-08-07 07:26:30';99820;;;12;55
30343;BME280;17145;49.902;8.680;'2023-08-07 07:28:57';99820;;;12;54
30343;BME280;17145;49.902;8.680;'2023-08-07 07:31:25';99830;;;12;54
30343;BME280;17145;49.902;8.680;'2023-08-07 07:33:52';99840;;;13;55
30343;BME280;17145;49.902;8.680;'2023-08-07 07:36:20';99830;;;13;54
30343;BME280;17145;49.902;8.680;'2023-08-07 07:38:47';99830;;;13;54
30343;BME280;17145;49.902;8.680;'2023-08-07 07:41:14';99830;;;12;54
30343;BME280;17145;49.902;8.680;'2023-08-07 07:43:42';99830;;;12;55
30343;BME280;17145;49.902;8.680;'2023-08-07 07:46:09';99830;;;13;54
30343;BME280;17145;49.902;8.680;'2023-08-07 07:48:37';99840;;;12;54
30343;BME280;17145;49.902;8.680;'2023-08-07 07:51:04';99840;;;13;54
30343;BME280;17145;49.902;8.680;'2023-08-07 07:53:31';99840;;;12;54
30343;BME280;17145;49.902;8.680;'2023-08-07 07:55:59';99850;;;12;54
30343;BME280;17145;49.902;8.680;'2023-08-07 07:58:26';99850;;;12;54
30343;BME280;17145;49.902;8.680;'2023-08-07 08:00:53';99850;;;12;54
30343;BME280;17145;49.902;8.680;'2023-08-07 08:03:21';99850;;;12;54
30343;BME280;17145;49.902;8.680;'2023-08-07 08:05:48';99860;;;12;55
30343;BME280;17145;49.902;8.680;'2023-08-07 08:08:16';99860;;;13;54
30343;BME280;17145;49.902;8.680;'2023-08-07 08:10:43';99860;;;12;54
30343;BME280;17145;49.902;8.680;'2023-08-07 08:13:11';99860;;;13;54
30343;BME280;17145;49.902;8.680;'2023-08-07 08:15:38';99860;;;12;54
30343;BME280;17145;49.902;8.680;'2023-08-07 08:18:06';99860;;;12;54
30343;BME280;17145;49.902;8.680;'2023-08-07 08:20:34';99870;;;12;55
30343;BME280;17145;49.902;8.680;'2023-08-07 08:23:01';99870;;;13;55
30343;BME280;17145;49.902;8.680;'2023-08-07 08:25:28';99870;;;12;55
30343;BME280;17145;49.902;8.680;'2023-08-07 08:27:56';99870;;;12;55
30343;BME280;17145;49.902;8.680;'2023-08-07 08:30:23';99870;;;12;56
30343;BME280;17145;49.902;8.680;'2023-08-07 08:32:51';99880;;;12;55
30343;BME280;17145;49.902;8.680;'2023-08-07 08:35:18';99880;;;12;55
30343;BME280;17145;49.902;8.680;'2023-08-07 08:37:45';99880;;;13;55
30343;BME280;17145;49.902;8.680;'2023-08-07 08:40:13';99880;;;12;56
30343;BME280;17145;49.902;8.680;'2023-08-07 08:42:40';99890;;;12;56
30343;BME280;17145;49.902;8.680;'2023-08-07 08:45:08';99880;;;12;56
30343;BME280;17145;49.902;8.680;'2023-08-07 08:47:36';99890;;;12;56
30343;BME280;17145;49.902;8.680;'2023-08-07 08:50:04';99890;;;12;56
30343;BME280;17145;49.902;8.680;'2023-08-07 08:52:31';99890;;;12;56
30343;BME280;17145;49.902;8.680;'2023-08-07 08:54:58';99890;;;12;56
30343;BME280;17145;49.902;8.680;'2023-08-07 08:57:25';99900;;;13;56
30343;BME280;17145;49.902;8.680;'2023-08-07 08:59:53';99890;;;12;57
30343;BME280;17145;49.902;8.680;'2023-08-07 09:02:20';99900;;;12;56
30343;BME280;17145;49.902;8.680;'2023-08-07 09:04:48';99900;;;12;57
30343;BME280;17145;49.902;8.680;'2023-08-07 09:07:15';99900;;;12;57
30343;BME280;17145;49.902;8.680;'2023-08-07 09:09:43';99900;;;12;56
30343;BME280;17145;49.902;8.680;'2023-08-07 09:12:10';99900;;;13;56
30343;BME280;17145;49.902;8.680;'2023-08-07 09:14:38';99910;;;13;56
30343;BME280;17145;49.902;8.680;'2023-08-07 09:17:05';99920;;;12;56
30343;BME280;17145;49.902;8.680;'2023-08-07 09:19:33';99920;;;12;56
30343;BME280;17145;49.902;8.680;'2023-08-07 09:22:00';99930;;;13;56
30343;BME280;17145;49.902;8.680;'2023-08-07 09:24:27';99920;;;13;56
30343;BME280;17145;49.902;8.680;'2023-08-07 09:26:55';99920;;;13;56
30343;BME280;17145;49.902;8.680;'2023-08-07 09:29:22';99930;;;13;56
30343;BME280;17145;49.902;8.680;'2023-08-07 09:31:50';99920;;;12;55
30343;BME280;17145;49.902;8.680;'2023-08-07 09:34:17';99930;;;13;55
30343;BME280;17145;49.902;8.680;'2023-08-07 09:36:44';99920;;;13;55
30343;BME280;17145;49.902;8.680;'2023-08-07 09:39:12';99930;;;12;55
30343;BME280;17145;49.902;8.680;'2023-08-07 09:41:39';99930;;;12;55
30343;BME280;17145;49.902;8.680;'2023-08-07 09:44:07';99930;;;12;55
30343;BME280;17145;49.902;8.680;'2023-08-07 09:46:34';99930;;;13;55
30343;BME280;17145;49.902;8.680;'2023-08-07 09:49:02';99940;;;13;55
30343;BME280;17145;49.902;8.680;'2023-08-07 09:51:29';99940;;;13;55
30343;BME280;17145;49.902;8.680;'2023-08-07 09:53:57';99940;;;13;54
30343;BME280;17145;49.902;8.680;'2023-08-07 09:56:24';99960;;;13;54
30343;BME280;17145;49.902;8.680;'2023-08-07 09:58:51';99970;;;13;55
30343;BME280;17145;49.902;8.680;'2023-08-07 10:01:19';99970;;;13;55
30343;BME280;17145;49.902;8.680;'2023-08-07 10:03:46';99970;;;13;54
30343;BME280;17145;49.902;8.680;'2023-08-07 10:06:14';99970;;;12;55
30343;BME280;17145;49.902;8.680;'2023-08-07 10:08:42';99970;;;13;54
30343;BME280;17145;49.902;8.680;'2023-08-07 10:11:10';99980;;;13;54
30343;BME280;17145;49.902;8.680;'2023-08-07 10:13:37';99980;;;13;54
30343;BME280;17145;49.902;8.680;'2023-08-07 10:16:04';99980;;;13;54
30343;BME280;17145;49.902;8.680;'2023-08-07 10:18:32';99990;;;13;54
30343;BME280;17145;49.902;8.680;'2023-08-07 10:20:59';100000;;;13;53
30343;BME280;17145;49.902;8.680;'2023-08-07 10:23:26';99990;;;13;54
30343;BME280;17145;49.902;8.680;'2023-08-07 10:25:54';100000;;;13;53
30343;BME280;17145;49.902;8.680;'2023-08-07 10:28:21';99990;;;13;54
30343;BME280;17145;49.902;8.680;'2023-08-07 10:30:49';99990;;;12;54
30343;BME280;17145;49.902;8.680;'2023-08-07 10:33:16';99990;;;12;54
30343;BME280;17145;49.902;8.680;'2023-08-07 10:35:44';100000;;;13;54
30343;BME280;17145;49.902;8.680;'2023-08-07 10:38:11';100010;;;13;53
30343;BME280;17145;49.902;8.680;'2023-08-07 10:40:39';100000;;;13;54
30343;BME280;17145;49.902;8.680;'2023-08-07 10:43:07';100000;;;12;54
30343;BME280;17145;49.902;8.680;'2023-08-07 10:45:35';100000;;;13;54
30343;BME280;17145;49.902;8.680;'2023-08-07 10:48:04';99990;;;12;54
30343;BME280;17145;49.902;8.680;'2023-08-07 10:50:33';100000;;;12;54
30343;BME280;17145;49.902;8.680;'2023-08-07 10:53:02';100000;;;13;54
30343;BME280;17145;49.902;8.680;'2023-08-07 10:55:31';100000;;;13;54
30343;BME280;17145;49.902;8.680;'2023-08-07 10:57:59';100010;;;13;54
30343;BME280;17145;49.902;8.680;'2023-08-07 11:00:27';100010;;;13;54
30343;BME280;17145;49.902;8.680;'2023-08-07 11:02:55';100010;;;13;54
30343;BME280;17145;49.902;8.680;'2023-08-07 11:05:22';100010;;;13;54
30343;BME280;17145;49.902;8.680;'2023-08-07 11:07:50';100010;;;12;54
30343;BME280;17145;49.902;8.680;'2023-08-07 11:10:17';100010;;;13;54
30343;BME280;17145;49.902;8.680;'2023-08-07 11:12:53';100010;;;13;54
30343;BME280;17145;49.902;8.680;'2023-08-07 11:15:23';100020;;;13;53
30343;BME280;17145;49.902;8.680;'2023-08-07 11:17:51';100010;;;13;53
30343;BME280;17145;49.902;8.680;'2023-08-07 11:20:19';100010;;;13;54
30343;BME280;17145;49.902;8.680;'2023-08-07 11:22:46';100010;;;13;54
30343;BME280;17145;49.902;8.680;'2023-08-07 11:25:14';100020;;;13;53
30343;BME280;17145;49.902;8.680;'2023-08-07 11:27:41';100020;;;13;53
30343;BME280;17145;49.902;8.680;'2023-08-07 11:30:10';100020;;;13;53
30343;BME280;17145;49.902;8.680;'2023-08-07 11:32:38';100030;;;13;53
30343;BME280;17145;49.902;8.680;'2023-08-07 11:35:07';100020;;;14;53
30343;BME280;17145;49.902;8.680;'2023-08-07 11:37:36';100030;;;13;53
30343;BME280;17145;49.902;8.680;'2023-08-07 11:40:05';100030;;;13;53
30343;BME280;17145;49.902;8.680;'2023-08-07 11:42:32';100040;;;14;53
30343;BME280;17145;49.902;8.680;'2023-08-07 11:45:00';100040;;;14;53
30343;BME280;17145;49.902;8.680;'2023-08-07 11:47:28';100050;;;13;54
30343;BME280;17145;49.902;8.680;'2023-08-07 11:49:55';100040;;;13;54
30343;BME280;17145;49.902;8.680;'2023-08-07 11:52:24';100050;;;13;55
30343;BME280;17145;49.902;8.680;'2023-08-07 11:54:56';100050;;;13;55
30343;BME280;17145;49.902;8.680;'2023-08-07 11:57:24';100060;;;13;55
30343;BME280;17145;49.902;8.680;'2023-08-07 11:59:52';100060;;;13;55
30343;BME280;17145;49.902;8.680;'2023-08-07 12:02:20';100060;;;13;56
30343;BME280;17145;49.902;8.680;'2023-08-07 12:04:50';100070;;;13;56
30343;BME280;17145;49.902;8.680;'2023-08-07 12:07:17';100070;;;13;57
30343;BME280;17145;49.902;8.680;'2023-08-07 12:09:47';100070;;;13;57
30343;BME280;17145;49.902;8.680;'2023-08-07 12:12:16';100070;;;13;58
30343;BME280;17145;49.902;8.680;'2023-08-07 12:14:45';100070;;;13;58
30343;BME280;17145;49.902;8.680;'2023-08-07 12:17:13';100080;;;13;57
30343;BME280;17145;49.902;8.680;'2023-08-07 12:19:40';100090;;;13;58
30343;BME280;17145;49.902;8.680;'2023-08-07 12:22:08';100090;;;13;58
30343;BME280;17145;49.902;8.680;'2023-08-07 12:24:40';100090;;;13;58
30343;BME280;17145;49.902;8.680;'2023-08-07 12:27:09';100090;;;13;58
30343;BME280;17145;49.902;8.680;'2023-08-07 12:29:38';100090;;;13;58
30343;BME280;17145;49.902;8.680;'2023-08-07 12:32:07';100090;;;13;58
30343;BME280;17145;49.902;8.680;'2023-08-07 12:34:36';100090;;;13;58
30343;BME280;17145;49.902;8.680;'2023-08-07 12:37:06';100090;;;13;57
30343;BME280;17145;49.902;8.680;'2023-08-07 12:39:33';100090;;;13;58
30343;BME280;17145;49.902;8.680;'2023-08-07 12:42:01';100090;;;13;58
30343;BME280;17145;49.902;8.680;'2023-08-07 12:44:30';100100;;;13;58
30343;BME280;17145;49.902;8.680;'2023-08-07 12:46:58';100100;;;13;58
30343;BME280;17145;49.902;8.680;'2023-08-07 12:49:32';100100;;;14;57
30343;BME280;17145;49.902;8.680;'2023-08-07 12:52:02';100100;;;13;57
30343;BME280;17145;49.902;8.680;'2023-08-07 12:54:29';100100;;;14;57
30343;BME280;17145;49.902;8.680;'2023-08-07 12:56:59';100100;;;13;57
30343;BME280;17145;49.902;8.680;'2023-08-07 12:59:29';100100;;;14;57
30343;BME280;17145;49.902;8.680;'2023-08-07 13:01:56';100100;;;13;57
30343;BME280;17145;49.902;8.680;'2023-08-07 13:04:24';100110;;;13;57
30343;BME280;17145;49.902;8.680;'2023-08-07 13:06:51';100110;;;13;57
30343;BME280;17145;49.902;8.680;'2023-08-07 13:09:19';100110;;;13;57
30343;BME280;17145;49.902;8.680;'2023-08-07 13:11:48';100110;;;14;57
30343;BME280;17145;49.902;8.680;'2023-08-07 13:14:17';100100;;;14;57
30343;BME280;17145;49.902;8.680;'2023-08-07 13:16:46';100110;;;14;57
30343;BME280;17145;49.902;8.680;'2023-08-07 13:19:15';100110;;;14;57
30343;BME280;17145;49.902;8.680;'2023-08-07 13:21:43';100100;;;14;56
30343;BME280;17145;49.902;8.680;'2023-08-07 13:24:13';100100;;;14;56
30343;BME280;17145;49.902;8.680;'2023-08-07 13:26:42';100100;;;14;56
30343;BME280;17145;49.902;8.680;'2023-08-07 13:29:09';100100;;;14;56
30343;BME280;17145;49.902;8.680;'2023-08-07 13:31:37';100110;;;14;56
30343;BME280;17145;49.902;8.680;'2023-08-07 13:34:04';100100;;;14;56
30343;BME280;17145;49.902;8.680;'2023-08-07 13:36:32';100110;;;14;56
30343;BME280;17145;49.902;8.680;'2023-08-07 13:38:59';100100;;;15;57
30343;BME280;17145;49.902;8.680;'2023-08-07 13:41:27';100100;;;14;57
30343;BME280;17145;49.902;8.680;'2023-08-07 13:43:54';100110;;;14;57
30343;BME280;17145;49.902;8.680;'2023-08-07 13:46:22';100100;;;14;57
30343;BME280;17145;49.902;8.680;'2023-08-07 13:48:52';100100;;;15;57
30343;BME280;17145;49.902;8.680;'2023-08-07 13:51:20';100100;;;14;56
30343;BME280;17145;49.902;8.680;'2023-08-07 13:53:48';100100;;;14;56
30343;BME280;17145;49.902;8.680;'2023-08-07 13:56:15';100110;;;15;57
30343;BME280;17145;49.902;8.680;'2023-08-07 13:58:45';100110;;;14;57
30343;BME280;17145;49.902;8.680;'2023-08-07 14:01:14';100110;;;14;56
30343;BME280;17145;49.902;8.680;'2023-08-07 14:03:43';100110;;;15;56
30343;BME280;17145;49.902;8.680;'2023-08-07 14:06:10';100110;;;15;57
30343;BME280;17145;49.902;8.680;'2023-08-07 14:08:40';100110;;;14;57
30343;BME280;17145;49.902;8.680;'2023-08-07 14:11:10';100110;;;14;58
30343;BME280;17145;49.902;8.680;'2023-08-07 14:13:39';100120;;;14;57
30343;BME280;17145;49.902;8.680;'2023-08-07 14:16:07';100110;;;14;57
30343;BME280;17145;49.902;8.680;'2023-08-07 14:18:36';100120;;;14;58
30343;BME280;17145;49.902;8.680;'2023-08-07 14:21:06';100120;;;14;57
30343;BME280;17145;49.902;8.680;'2023-08-07 14:23:34';100120;;;14;57
30343;BME280;17145;49.902;8.680;'2023-08-07 14:26:02';100120;;;14;58
30343;BME280;17145;49.902;8.680;'2023-08-07 14:28:30';100120;;;14;57
30343;BME280;17145;49.902;8.680;'2023-08-07 14:30:57';100120;;;14;57
30343;BME280;17145;49.902;8.680;'2023-08-07 14:33:24';100120;;;14;57
30343;BME280;17145;49.902;8.680;'2023-08-07 14:35:52';100120;;;14;57
30343;BME280;17145;49.902;8.680;'2023-08-07 14:38:20';100120;;;14;57
30343;BME280;17145;49.902;8.680;'2023-08-07 14:40:48';100120;;;14;58
30343;BME280;17145;49.902;8.680;'2023-08-07 14:43:15';100110;;;15;58
30343;BME280;17145;49.902;8.680;'2023-08-07 14:45:43';100120;;;15;58
30343;BME280;17145;49.902;8.680;'2023-08-07 14:48:11';100110;;;15;57
30343;BME280;17145;49.902;8.680;'2023-08-07 14:50:39';100110;;;15;58
30343;BME280;17145;49.902;8.680;'2023-08-07 14:53:09';100110;;;15;57
30343;BME280;17145;49.902;8.680;'2023-08-07 14:55:36';100110;;;15;58
30343;BME280;17145;49.902;8.680;'2023-08-07 14:58:03';100110;;;15;57
30343;BME280;17145;49.902;8.680;'2023-08-07 15:00:31';100110;;;15;57
30343;BME280;17145;49.902;8.680;'2023-08-07 15:02:58';100110;;;15;57
30343;BME280;17145;49.902;8.680;'2023-08-07 15:05:28';100110;;;15;56
30343;BME280;17145;49.902;8.680;'2023-08-07 15:07:55';100110;;;15;56
30343;BME280;17145;49.902;8.680;'2023-08-07 15:10:24';100120;;;15;55
30343;BME280;17145;49.902;8.680;'2023-08-07 15:12:51';100120;;;15;55
30343;BME280;17145;49.902;8.680;'2023-08-07 15:15:18';100120;;;15;55
30343;BME280;17145;49.902;8.680;'2023-08-07 15:17:46';100120;;;15;55
30343;BME280;17145;49.902;8.680;'2023-08-07 15:20:14';100120;;;15;55
30343;BME280;17145;49.902;8.680;'2023-08-07 15:22:42';100120;;;15;55
30343;BME280;17145;49.902;8.680;'2023-08-07 15:25:12';100120;;;15;54
30343;BME280;17145;49.902;8.680;'2023-08-07 15:27:39';100120;;;16;53
30343;BME280;17145;49.902;8.680;'2023-08-07 15:30:08';100120;;;16;52
30343;BME280;17145;49.902;8.680;'2023-08-07 15:32:36';100110;;;16;52
30343;BME280;17145;49.902;8.680;'2023-08-07 15:35:04';100120;;;16;53
30343;BME280;17145;49.902;8.680;'2023-08-07 15:37:31';100100;;;17;48
30343;BME280;17145;49.902;8.680;'2023-08-07 15:39:59';100090;;;17;44
30343;BME280;17145;49.902;8.680;'2023-08-07 15:42:26';100100;;;18;45
30343;BME280;17145;49.902;8.680;'2023-08-07 15:44:54';100090;;;18;41
30343;BME280;17145;49.902;8.680;'2023-08-07 15:47:22';100100;;;19;41
30343;BME280;17145;49.902;8.680;'2023-08-07 15:49:49';100100;;;19;41
30343;BME280;17145;49.902;8.680;'2023-08-07 15:52:16';100100;;;18;40
30343;BME280;17145;49.902;8.680;'2023-08-07 15:54:44';100110;;;18;41
30343;BME280;17145;49.902;8.680;'2023-08-07 15:57:11';100100;;;18;41
30343;BME280;17145;49.902;8.680;'2023-08-07 15:59:39';100110;;;18;41
30343;BME280;17145;49.902;8.680;'2023-08-07 16:02:07';100120;;;18;39
30343;BME280;17145;49.902;8.680;'2023-08-07 16:04:34';100110;;;18;40
30343;BME280;17145;49.902;8.680;'2023-08-07 16:07:02';100120;;;17;40
30343;BME280;17145;49.902;8.680;'2023-08-07 16:09:30';100110;;;18;40
30343;BME280;17145;49.902;8.680;'2023-08-07 16:11:57';100110;;;18;40
30343;BME280;17145;49.902;8.680;'2023-08-07 16:14:24';100110;;;17;39
30343;BME280;17145;49.902;8.680;'2023-08-07 16:16:52';100110;;;18;41